sensor_id;sensor_type;location;lat;lon;timestamp;pressure;altitude;pressure_sealevel;temperature;humidity
4528;BME280;62320;51.520;6.818;2022-12-10T00:06:03;100373.66;;;1.13;100.00
4528;BME280;62320;51.520;6.818;2022-12-10T00:16:08;100370.97;;;1.08;100.00
4528;BME280;62320;51.520;6.818;2022-12-10T00:26:13;100367.22;;;1.24;99.11
4528;BME280;62320;51.520;6.818;2022-12-10T00:36:20;100378.13;;;1.20;99.07
4528;BME280;62320;51.520;6.818;2022-12-10T00:46:22;100379.06;;;1.23;99.46
4528;BME280;62320;51.520;6.818;2022-12-10T00:56:27;100371.38;;;1.20;99.05
4528;BME280;62320;51.520;6.818;2022-12-10T01:06:39;100370.50;;;1.20;100.00
4528;BME280;62320;51.520;6.818;2022-12-10T01:16:41;100381.44;;;1.17;100.00
4528;BME280;62320;51.520;6.818;2022-12-10T01:26:42;100383.56;;;1.04;100.00
4528;BME280;62320;51.520;6.818;2022-12-10T01:36:45;100396.03;;;0.96;100.00
4528;BME280;62320;51.520;6.818;2022-12-10T01:46:50;100402.50;;;0.87;99.68
4528;BME280;62320;51.520;6.818;2022-12-10T01:56:59;100402.34;;;0.82;99.80
4528;BME280;62320;51.520;6.818;2022-12-10T02:07:12;100416.47;;;0.73;99.90
4528;BME280;62320;51.520;6.818;2022-12-10T02:17:27;100415.38;;;0.66;100.00
4528;BME280;62320;51.520;6.818;2022-12-10T02:27:43;100419.66;;;0.67;100.00
4528;BME280;62320;51.520;6.818;2022-12-10T02:37:50;100414.00;;;0.50;100.00
4528;BME280;62320;51.520;6.818;2022-12-10T02:47:56;100410.50;;;0.47;100.00
4528;BME280;62320;51.520;6.818;2022-12-10T02:58:19;100410.41;;;0.20;100.00
4528;BME280;62320;51.520;6.818;2022-12-10T03:08:37;100413.41;;;0.10;100.00
4528;BME280;62320;51.520;6.818;2022-12-10T03:18:40;100431.88;;;0.05;100.00
4528;BME280;62320;51.520;6.818;2022-12-10T03:28:48;100421.03;;;0.10;100.00
4528;BME280;62320;51.520;6.818;2022-12-10T03:38:51;100428.47;;;0.04;100.00
4528;BME280;62320;51.520;6.818;2022-12-10T03:48:53;100432.88;;;0.10;100.00
4528;BME280;62320;51.520;6.818;2022-12-10T03:58:58;100430.75;;;-0.02;100.00
4528;BME280;62320;51.520;6.818;2022-12-10T04:08:59;100436.41;;;-0.09;100.00
4528;BME280;62320;51.520;6.818;2022-12-10T04:19:07;100434.25;;;-0.22;100.00
4528;BME280;62320;51.520;6.818;2022-12-10T04:29:09;100435.84;;;-0.24;100.00
4528;BME280;62320;51.520;6.818;2022-12-10T04:39:10;100423.03;;;-0.27;100.00
4528;BME280;62320;51.520;6.818;2022-12-10T04:49:13;100422.63;;;-0.38;100.00
4528;BME280;62320;51.520;6.818;2022-12-10T04:59:15;100433.53;;;-0.40;100.00
4528;BME280;62320;51.520;6.818;2022-12-10T05:09:17;100439.16;;;-0.49;100.00
4528;BME280;62320;51.520;6.818;2022-12-10T05:19:18;100441.63;;;-0.50;100.00
4528;BME280;62320;51.520;6.818;2022-12-10T05:29:24;100446.81;;;-0.47;100.00
4528;BME280;62320;51.520;6.818;2022-12-10T05:39:26;100443.78;;;-0.39;100.00
4528;BME280;62320;51.520;6.818;2022-12-10T05:49:27;100448.25;;;-0.32;100.00
4528;BME280;62320;51.520;6.818;2022-12-10T05:59:29;100465.63;;;-0.20;100.00
4528;BME280;62320;51.520;6.818;2022-12-10T06:09:30;100465.97;;;-0.11;100.00
4528;BME280;62320;51.520;6.818;2022-12-10T06:19:31;100473.13;;;-0.03;100.00
4528;BME280;62320;51.520;6.818;2022-12-10T06:29:33;100476.00;;;0.07;100.00
4528;BME280;62320;51.520;6.818;2022-12-10T06:39:34;100476.34;;;0.16;100.00
4528;BME280;62320;51.520;6.818;2022-12-10T06:49:36;100481.66;;;0.23;100.00
4528;BME280;62320;51.520;6.818;2022-12-10T06:59:37;100490.22;;;0.25;100.00
4528;BME280;62320;51.520;6.818;2022-12-10T07:09:38;100497.09;;;0.28;100.00
4528;BME280;62320;51.520;6.818;2022-12-10T07:19:40;100496.59;;;0.36;100.00
4528;BME280;62320;51.520;6.818;2022-12-10T07:29:41;100507.59;;;0.37;100.00
4528;BME280;62320;51.520;6.818;2022-12-10T07:39:44;100528.03;;;0.38;99.92
4528;BME280;62320;51.520;6.818;2022-12-10T07:49:45;100529.56;;;0.35;100.00
4528;BME280;62320;51.520;6.818;2022-12-10T07:59:47;100537.03;;;0.30;99.64
4528;BME280;62320;51.520;6.818;2022-12-10T08:09:48;100546.44;;;0.33;99.52
4528;BME280;62320;51.520;6.818;2022-12-10T08:19:50;100562.44;;;0.30;99.65
4528;BME280;62320;51.520;6.818;2022-12-10T08:29:51;100578.53;;;0.29;99.55
4528;BME280;62320;51.520;6.818;2022-12-10T08:39:53;100580.19;;;0.29;99.43
4528;BME280;62320;51.520;6.818;2022-12-10T08:49:54;100591.00;;;0.23;99.99
4528;BME280;62320;51.520;6.818;2022-12-10T08:59:56;100598.69;;;0.25;99.98
4528;BME280;62320;51.520;6.818;2022-12-10T09:09:57;100613.81;;;0.22;99.86
4528;BME280;62320;51.520;6.818;2022-12-10T09:19:58;100624.00;;;0.22;99.91
4528;BME280;62320;51.520;6.818;2022-12-10T09:30:00;100638.72;;;0.30;100.00
4528;BME280;62320;51.520;6.818;2022-12-10T09:40:02;100649.59;;;0.26;99.37
4528;BME280;62320;51.520;6.818;2022-12-10T10:00:39;100646.50;;;0.33;99.08
4528;BME280;62320;51.520;6.818;2022-12-10T10:10:41;100625.22;;;0.31;99.89
4528;BME280;62320;51.520;6.818;2022-12-10T10:20:43;100621.53;;;0.45;99.15
4528;BME280;62320;51.520;6.818;2022-12-10T10:30:45;100617.81;;;0.37;98.91
4528;BME280;62320;51.520;6.818;2022-12-10T10:40:51;100628.03;;;0.39;99.23
4528;BME280;62320;51.520;6.818;2022-12-10T11:01:08;100621.56;;;0.69;98.84
4528;BME280;62320;51.520;6.818;2022-12-10T11:11:22;100612.31;;;0.71;98.81
4528;BME280;62320;51.520;6.818;2022-12-10T11:21:26;100616.19;;;0.84;98.48
4528;BME280;62320;51.520;6.818;2022-12-10T11:41:48;100602.91;;;0.92;98.54
4528;BME280;62320;51.520;6.818;2022-12-10T11:53:00;100602.06;;;0.93;98.11
4528;BME280;62320;51.520;6.818;2022-12-10T12:23:02;100602.63;;;1.08;97.75
4528;BME280;62320;51.520;6.818;2022-12-10T12:33:13;100605.53;;;1.19;97.77
4528;BME280;62320;51.520;6.818;2022-12-10T12:43:23;100608.94;;;1.43;98.48
4528;BME280;62320;51.520;6.818;2022-12-10T12:53:27;100615.00;;;1.47;98.26
4528;BME280;62320;51.520;6.818;2022-12-10T13:03:43;100609.16;;;1.49;97.93
4528;BME280;62320;51.520;6.818;2022-12-10T13:24:12;100612.41;;;1.45;97.45
4528;BME280;62320;51.520;6.818;2022-12-10T13:34:33;100631.72;;;1.38;97.14
4528;BME280;62320;51.520;6.818;2022-12-10T13:44:48;100639.13;;;1.32;96.73
4528;BME280;62320;51.520;6.818;2022-12-10T14:06:02;100641.84;;;1.37;97.54
4528;BME280;62320;51.520;6.818;2022-12-10T14:16:14;100657.78;;;1.31;97.79
4528;BME280;62320;51.520;6.818;2022-12-10T14:26:19;100658.78;;;1.36;98.07
4528;BME280;62320;51.520;6.818;2022-12-10T14:36:33;100650.91;;;1.29;97.71
4528;BME280;62320;51.520;6.818;2022-12-10T14:46:35;100659.63;;;1.35;97.95
4528;BME280;62320;51.520;6.818;2022-12-10T14:56:37;100659.66;;;1.37;97.60
4528;BME280;62320;51.520;6.818;2022-12-10T15:06:39;100671.44;;;1.33;97.42
4528;BME280;62320;51.520;6.818;2022-12-10T15:16:43;100676.63;;;1.36;97.68
4528;BME280;62320;51.520;6.818;2022-12-10T15:26:49;100666.38;;;1.35;98.38
4528;BME280;62320;51.520;6.818;2022-12-10T15:36:56;100667.38;;;1.38;97.72
4528;BME280;62320;51.520;6.818;2022-12-10T16:07:24;100693.38;;;1.30;97.52
4528;BME280;62320;51.520;6.818;2022-12-10T16:17:29;100695.84;;;1.27;97.56
4528;BME280;62320;51.520;6.818;2022-12-10T16:27:31;100689.13;;;1.29;98.07
4528;BME280;62320;51.520;6.818;2022-12-10T16:37:33;100691.50;;;1.24;97.66
4528;BME280;62320;51.520;6.818;2022-12-10T16:47:35;100700.00;;;1.25;98.09
4528;BME280;62320;51.520;6.818;2022-12-10T16:57:36;100695.72;;;1.24;97.88
4528;BME280;62320;51.520;6.818;2022-12-10T17:07:41;100698.06;;;1.18;97.72
4528;BME280;62320;51.520;6.818;2022-12-10T17:17:42;100709.25;;;1.23;98.37
4528;BME280;62320;51.520;6.818;2022-12-10T17:27:44;100708.31;;;1.21;98.30
4528;BME280;62320;51.520;6.818;2022-12-10T17:37:46;100715.88;;;1.18;98.72
4528;BME280;62320;51.520;6.818;2022-12-10T17:47:48;100711.44;;;1.14;98.81
4528;BME280;62320;51.520;6.818;2022-12-10T17:57:50;100720.84;;;1.15;98.76
4528;BME280;62320;51.520;6.818;2022-12-10T18:07:52;100720.97;;;1.18;98.81
4528;BME280;62320;51.520;6.818;2022-12-10T18:17:53;100735.25;;;1.14;99.02
4528;BME280;62320;51.520;6.818;2022-12-10T18:27:57;100742.13;;;1.17;98.83
4528;BME280;62320;51.520;6.818;2022-12-10T18:38:00;100741.25;;;1.16;98.82
4528;BME280;62320;51.520;6.818;2022-12-10T18:48:02;100733.91;;;1.24;98.93
4528;BME280;62320;51.520;6.818;2022-12-10T18:58:04;100750.84;;;1.23;98.81
4528;BME280;62320;51.520;6.818;2022-12-10T19:08:10;100744.09;;;1.24;98.90
4528;BME280;62320;51.520;6.818;2022-12-10T19:18:14;100750.06;;;1.24;98.56
4528;BME280;62320;51.520;6.818;2022-12-10T19:28:16;100745.00;;;1.26;99.17
4528;BME280;62320;51.520;6.818;2022-12-10T19:38:20;100732.41;;;1.29;99.13
4528;BME280;62320;51.520;6.818;2022-12-10T19:48:21;100733.31;;;1.31;99.13
4528;BME280;62320;51.520;6.818;2022-12-10T19:58:23;100740.84;;;1.28;99.06
4528;BME280;62320;51.520;6.818;2022-12-10T20:08:24;100738.09;;;1.22;99.45
4528;BME280;62320;51.520;6.818;2022-12-10T20:18:26;100733.88;;;1.22;98.75
4528;BME280;62320;51.520;6.818;2022-12-10T20:28:27;100738.09;;;1.22;99.03
4528;BME280;62320;51.520;6.818;2022-12-10T20:38:28;100742.34;;;1.23;98.84
4528;BME280;62320;51.520;6.818;2022-12-10T20:48:30;100757.53;;;1.20;98.98
4528;BME280;62320;51.520;6.818;2022-12-10T20:58:31;100746.59;;;1.22;98.94
4528;BME280;62320;51.520;6.818;2022-12-10T21:08:33;100737.91;;;1.17;98.65
4528;BME280;62320;51.520;6.818;2022-12-10T21:18:34;100745.44;;;1.14;98.90
4528;BME280;62320;51.520;6.818;2022-12-10T21:28:35;100733.56;;;1.15;99.17
4528;BME280;62320;51.520;6.818;2022-12-10T21:38:37;100736.81;;;1.11;99.51
4528;BME280;62320;51.520;6.818;2022-12-10T21:48:39;100736.75;;;1.09;99.71
4528;BME280;62320;51.520;6.818;2022-12-10T21:58:40;100738.38;;;1.07;98.96
4528;BME280;62320;51.520;6.818;2022-12-10T22:08:41;100744.22;;;1.05;99.09
4528;BME280;62320;51.520;6.818;2022-12-10T22:18:43;100738.09;;;1.00;99.65
4528;BME280;62320;51.520;6.818;2022-12-10T22:28:45;100741.31;;;0.96;99.21
4528;BME280;62320;51.520;6.818;2022-12-10T22:38:47;100753.03;;;0.91;98.98
4528;BME280;62320;51.520;6.818;2022-12-10T22:48:48;100753.03;;;0.91;99.51
4528;BME280;62320;51.520;6.818;2022-12-10T22:58:52;100750.59;;;0.94;99.18
4528;BME280;62320;51.520;6.818;2022-12-10T23:08:53;100758.13;;;0.91;99.37
4528;BME280;62320;51.520;6.818;2022-12-10T23:18:55;100751.28;;;0.90;99.42
4528;BME280;62320;51.520;6.818;2022-12-10T23:28:56;100749.63;;;0.90;99.37
4528;BME280;62320;51.520;6.818;2022-12-10T23:38:58;100747.78;;;0.86;99.39
4528;BME280;62320;51.520;6.818;2022-12-10T23:48:59;100742.91;;;0.92;100.00
4528;BME280;62320;51.520;6.818;2022-12-10T23:59:01;100730.88;;;0.88;100.00
